Airfield :
LOGIN :

Register | Disclaimer

   EN    FR    IT 

 










Legend :    VFR   Marginal VFR   IFR   Intensive IFR   Very Intensive IFR
Visi :
Ceiling :
>= 8 km
>= 3000ft
5 to 8 km
1000 to 3000 ft
1500m to 5 km
500 to 1000 ft
800 to 1500m
200 to 500 ft
< 800m
< 200 ft
Symbols :   Thunderstorms  Fog  Heavy snow  Heavy precipitations  Wind > 20 kt
SIGMETs :     Misc.  Thunderstorms  Icing  Turbulence  Mountain Waves  Volcanic Ashes







- Airport Elevation : 364 ft
- IATA code : FRA


EDDF - Frankfurt Int.

CURRENT METAR :
  • 281020Z 19009KT 9999 VCSH FEW005 FEW011CB SCT015 BKN040 20/17 Q0999 TEMPO BKN014

EXPIRED METARs :
  • 280950Z 19008KT 160V220 9999 FEW007 SCT013 BKN018 20/17 Q0999 TEMPO BKN014
  • 280920Z 18008KT 150V220 9999 FEW006 BKN028 BKN060 19/18 Q1000 NOSIG
  • 280850Z 19008KT 9999 -RA FEW006 SCT008 BKN070 19/17 Q1000 TEMPO BKN008
  • 280820Z 20009KT 170V230 9999 -RA FEW006 SCT008 BKN022 19/18 Q1000 TEMPO BKN008
  • 280750Z 20008KT 9999 -RA FEW007 SCT027 OVC035 19/18 Q1000 NOSIG

TAF AMD TAF EDDF
Valid from the 28 at 07:00 until the 29 at 12:00 UTC


280738Z 2807/2912 21010KT 9999 SCT030
TEMPO 2807/2810 RA BKN025
PROB30
TEMPO 2812/2818 23015G25KT TSRA SCT030CB
No reported NOTAMs for that airfield.



MET'MAP, your aeronautical weather chart ! - Copyright ORBIFLY December 2007 - Disclaimer

ORBIFLY MET'MAP TEAM :

Programming & Development : Alexandra Zaïnal
Concept & Development : Baudouin d'Aumeries
Co-Development & Prog : Marc-Olivier Méhu
Technical & hardware support : Manuel Goepfert

Contact : metmap@orbifly.com




SOURCES & CREDITS :

   NOAA